Time;durP1;ratioP1;P1;durP2;ratioP2;P2;SDS_P1;SDS_P2;PMS_P1;PMS_P2;Temp;Humidity;BMP_temperature;BMP_pressure;BME280_temperature;BME280_humidity;BME280_pressure;Samples;Min_cycle;Max_cycle;Signal;HPM_P1;HPM_P2
2023/04/22 00:02:01;;;;;;;;;6.00;5.00;;;;;22.55;30.23;100573.00;5076862;28;45461;-75
2023/04/22 00:04:27;;;;;;;;;5.25;3.25;;;;;22.47;30.19;100566.81;5077364;28;45233;-75
2023/04/22 00:06:53;;;;;;;;;6.00;4.00;;;;;22.54;30.84;100574.81;5077382;28;45416;-75
2023/04/22 00:09:18;;;;;;;;;4.25;4.25;;;;;22.55;30.78;100575.66;5076903;28;45367;-76
2023/04/22 00:11:43;;;;;;;;;2.00;2.00;;;;;22.55;30.24;100578.31;5077116;28;45340;-75
2023/04/22 00:14:09;;;;;;;;;5.00;5.00;;;;;22.40;30.21;100553.50;5077279;28;45470;-75
2023/04/22 00:16:34;;;;;;;;;5.25;3.25;;;;;22.54;30.70;100569.53;5076790;28;45377;-76
2023/04/22 00:18:59;;;;;;;;;3.25;3.25;;;;;22.55;30.76;100565.03;5076923;28;45741;-72
2023/04/22 00:21:26;;;;;;;;;4.00;3.25;;;;;22.44;30.27;100545.16;5077106;28;45494;-75
2023/04/22 00:23:51;;;;;;;;;4.25;4.25;;;;;22.39;30.35;100543.09;5077038;28;45222;-73
2023/04/22 00:26:17;;;;;;;;;5.00;5.00;;;;;22.53;30.29;100562.59;5076514;28;45567;-76
2023/04/22 00:28:42;;;;;;;;;7.75;4.25;;;;;22.48;30.20;100549.09;5076679;28;46295;-75
2023/04/22 00:31:07;;;;;;;;;5.00;4.00;;;;;22.48;30.52;100554.41;5076402;28;45351;-75
2023/04/22 00:33:32;;;;;;;;;5.50;4.00;;;;;22.52;30.80;100550.34;5076802;28;45276;-75
2023/04/22 00:35:58;;;;;;;;;4.50;4.50;;;;;22.51;30.33;100543.38;5076811;28;45560;-75
2023/04/22 00:38:23;;;;;;;;;3.75;3.75;;;;;22.51;30.61;100543.38;5076247;28;46193;-72
2023/04/22 00:40:49;;;;;;;;;7.00;6.00;;;;;22.43;30.67;100525.00;5076603;28;45267;-75
2023/04/22 00:43:16;;;;;;;;;5.00;5.00;;;;;22.45;30.13;100529.09;5076715;28;45891;-75
2023/04/22 00:45:42;;;;;;;;;4.00;4.00;;;;;22.44;30.33;100516.84;5076451;28;45357;-75
2023/04/22 00:48:09;;;;;;;;;6.00;5.25;;;;;22.51;30.28;100524.81;5075598;28;46439;-75
2023/04/22 00:50:34;;;;;;;;;5.75;4.75;;;;;22.50;30.62;100528.50;5076493;28;45428;-74
2023/04/22 00:53:00;;;;;;;;;4.25;4.25;;;;;22.51;30.54;100535.44;5076603;28;45392;-76
2023/04/22 00:55:25;;;;;;;;;4.00;4.00;;;;;22.51;30.79;100527.47;5076535;28;45403;-75
2023/04/22 00:57:53;;;;;;;;;7.00;6.00;;;;;22.51;30.42;100535.44;5076398;28;45583;-75
2023/04/22 01:00:19;;;;;;;;;4.50;4.50;;;;;22.50;30.88;100537.28;5075934;28;45426;-75
2023/04/22 01:02:45;;;;;;;;;4.75;3.50;;;;;22.38;29.87;100513.09;5076387;28;45336;-73
2023/04/22 01:05:10;;;;;;;;;5.50;5.50;;;;;22.50;30.25;100528.50;5076538;28;45357;-76
2023/04/22 01:07:35;;;;;;;;;5.25;5.25;;;;;22.34;30.95;100506.56;5076020;28;45416;-76
2023/04/22 01:10:02;;;;;;;;;6.00;5.00;;;;;22.51;30.92;100522.19;5076340;28;45661;-73
2023/04/22 01:12:28;;;;;;;;;4.00;4.00;;;;;22.36;30.56;100499.22;5076394;28;45344;-76
2023/04/22 01:14:53;;;;;;;;;5.00;5.00;;;;;22.51;30.56;100516.88;5075689;28;45470;-76
2023/04/22 01:17:20;;;;;;;;;4.00;4.00;;;;;22.37;30.42;100481.50;5075929;28;47354;-74
2023/04/22 01:19:47;;;;;;;;;5.00;5.00;;;;;22.40;30.52;100481.13;5076068;28;45467;-74
2023/04/22 01:22:13;;;;;;;;;4.75;4.75;;;;;22.50;30.70;100492.22;5076047;28;45293;-73
2023/04/22 01:24:39;;;;;;;;;5.00;5.00;;;;;22.42;30.51;100467.66;5075933;28;45404;-76
2023/04/22 01:27:05;;;;;;;;;5.00;5.00;;;;;22.52;30.71;100474.28;5075507;28;47269;-75
2023/04/22 01:29:30;;;;;;;;;5.50;4.75;;;;;22.38;30.37;100454.78;5075723;28;45405;-76
2023/04/22 01:31:56;;;;;;;;;4.00;4.00;;;;;22.53;30.62;100475.13;5076086;28;45220;-75
2023/04/22 01:34:22;;;;;;;;;6.75;5.00;;;;;22.47;30.79;100470.56;5076031;28;45358;-75
2023/04/22 01:36:49;;;;;;;;;7.50;6.00;;;;;22.49;30.56;100463.22;5075622;28;46161;-75
2023/04/22 01:39:14;;;;;;;;;4.00;4.00;;;;;22.52;30.65;100460.19;5075544;27;45519;-76
2023/04/22 01:41:40;;;;;;;;;5.00;5.00;;;;;22.49;30.24;100444.69;5075925;28;45439;-76
2023/04/22 01:44:05;;;;;;;;;4.00;4.00;;;;;22.38;30.44;100415.03;5075552;28;45324;-75
2023/04/22 01:46:32;;;;;;;;;7.75;6.25;;;;;22.39;30.68;100407.91;5075374;28;53454;-76
2023/04/22 01:48:57;;;;;;;;;5.00;5.00;;;;;22.51;30.76;100424.91;5075640;28;45482;-75
2023/04/22 01:51:23;;;;;;;;;5.25;5.00;;;;;22.22;30.76;100378.25;5075775;28;45429;-75
2023/04/22 01:53:49;;;;;;;;;5.50;5.50;;;;;22.38;30.69;100401.78;5075839;28;45594;-75
2023/04/22 01:56:15;;;;;;;;;4.00;4.00;;;;;22.50;30.51;100419.81;5075398;28;46397;-75
2023/04/22 01:58:40;;;;;;;;;5.75;5.75;;;;;22.50;30.42;100420.66;5075083;28;45376;-74
2023/04/22 02:01:08;;;;;;;;;6.75;6.75;;;;;22.48;30.99;100427.16;5079043;28;45408;-75
2023/04/22 02:03:33;;;;;;;;;4.75;4.75;;;;;22.49;30.96;100432.25;5079156;28;45332;-76
2023/04/22 02:05:58;;;;;;;;;5.00;5.00;;;;;22.41;30.84;100419.13;5078978;28;46023;-76
2023/04/22 02:08:24;;;;;;;;;5.25;5.25;;;;;22.37;30.48;100416.06;5079067;28;45416;-77
2023/04/22 02:10:49;;;;;;;;;7.50;5.50;;;;;22.43;30.47;100421.59;5079065;28;45426;-76
2023/04/22 02:13:14;;;;;;;;;6.75;5.50;;;;;22.48;31.01;100421.84;5078600;28;45514;-76
2023/04/22 02:15:40;;;;;;;;;6.25;4.25;;;;;22.43;30.84;100411.00;5078702;28;46241;-75
2023/04/22 02:18:06;;;;;;;;;6.00;6.00;;;;;22.42;30.58;100417.31;5078782;28;45424;-75
2023/04/22 02:20:31;;;;;;;;;6.50;5.75;;;;;22.31;30.67;100410.69;5079004;28;45420;-76
2023/04/22 02:22:57;;;;;;;;;5.00;5.00;;;;;22.34;31.25;100403.19;5077490;28;45427;-75
2023/04/22 02:25:22;;;;;;;;;7.75;7.75;;;;;22.34;30.85;100411.16;5078908;28;45396;-75
2023/04/22 02:27:47;;;;;;;;;7.50;6.00;;;;;22.38;30.78;100416.88;5078201;28;45364;-75
2023/04/22 02:30:13;;;;;;;;;4.00;4.00;;;;;22.37;30.85;100416.06;5078831;28;45297;-75
2023/04/22 02:32:39;;;;;;;;;5.25;5.25;;;;;22.34;30.90;100410.31;5078819;28;45337;-75
2023/04/22 02:35:05;;;;;;;;;5.25;5.25;;;;;22.45;30.90;100427.53;5078554;28;46891;-75
2023/04/22 02:37:30;;;;;;;;;6.00;6.00;;;;;22.47;30.36;100441.41;5078379;28;45320;-75
2023/04/22 02:39:55;;;;;;;;;6.00;5.25;;;;;22.48;30.59;100449.16;5078597;28;45360;-75
2023/04/22 02:42:21;;;;;;;;;5.75;5.75;;;;;22.40;30.40;100452.75;5078272;28;45297;-75
2023/04/22 02:44:46;;;;;;;;;8.25;6.00;;;;;22.48;30.93;100456.31;5078384;28;46191;-75
2023/04/22 02:47:11;;;;;;;;;6.00;6.00;;;;;22.50;30.50;100456.94;5078427;28;45292;-74
2023/04/22 02:49:37;;;;;;;;;6.00;5.00;;;;;22.49;30.80;100452.63;5078434;28;45384;-75
2023/04/22 02:52:02;;;;;;;;;5.50;5.50;;;;;22.39;30.46;100435.25;5078274;28;50981;-75
2023/04/22 02:54:27;;;;;;;;;5.00;5.00;;;;;22.40;30.29;100428.91;5078183;28;48912;-75
2023/04/22 02:56:53;;;;;;;;;4.00;4.00;;;;;22.40;30.54;100417.50;5077755;28;47201;-75
2023/04/22 02:59:18;;;;;;;;;5.00;5.00;;;;;22.50;30.45;100435.72;5078427;28;45387;-75
2023/04/22 03:01:43;;;;;;;;;5.50;5.50;;;;;22.38;30.76;100406.25;5078234;28;45368;-74
2023/04/22 03:04:10;;;;;;;;;6.50;5.25;;;;;22.50;30.57;100417.16;5078160;28;45401;-75
2023/04/22 03:06:36;;;;;;;;;2.00;1.00;;;;;22.50;31.20;100422.47;5078202;28;45404;-75
2023/04/22 03:09:01;;;;;;;;;5.00;5.00;;;;;22.49;30.78;100421.66;5078195;28;45328;-75
2023/04/22 03:11:27;;;;;;;;;6.75;6.25;;;;;22.40;30.55;100423.59;5077577;28;45416;-75
2023/04/22 03:13:52;;;;;;;;;5.25;5.25;;;;;22.49;30.83;100431.41;5078072;28;46981;-75
2023/04/22 03:16:18;;;;;;;;;5.25;5.25;;;;;22.50;30.91;100425.13;5077908;28;45442;-75
2023/04/22 03:18:43;;;;;;;;;5.25;4.50;;;;;22.48;30.61;100421.84;5078122;28;45437;-75
2023/04/22 03:21:08;;;;;;;;;6.25;5.25;;;;;22.49;31.03;100419.00;5078157;28;45500;-75
2023/04/22 03:23:34;;;;;;;;;5.00;5.00;;;;;22.49;31.13;100412.88;5077750;28;46090;-76
2023/04/22 03:25:59;;;;;;;;;6.00;5.00;;;;;22.48;30.77;100422.66;5077545;28;45327;-75
2023/04/22 03:28:25;;;;;;;;;6.00;6.00;;;;;22.41;30.62;100419.13;5077659;28;45236;-75
2023/04/22 03:30:51;;;;;;;;;6.00;5.50;;;;;22.32;31.18;100402.56;5077690;28;50534;-75
2023/04/22 03:33:17;;;;;;;;;4.00;4.00;;;;;22.29;31.02;100395.00;5077527;28;45882;-75
2023/04/22 03:35:42;;;;;;;;;5.75;5.75;;;;;22.45;30.65;100415.09;5077684;28;45395;-75
2023/04/22 03:38:07;;;;;;;;;5.00;5.00;;;;;22.46;30.67;100410.59;5077590;28;45435;-75
2023/04/22 03:40:33;;;;;;;;;5.00;5.00;;;;;22.46;30.94;100414.06;5077369;28;45455;-75
2023/04/22 03:42:58;;;;;;;;;5.00;5.00;;;;;22.25;30.44;100376.00;5077316;28;47233;-75
2023/04/22 03:45:23;;;;;;;;;6.75;6.50;;;;;22.44;30.89;100402.84;5077490;28;45355;-75
2023/04/22 03:47:49;;;;;;;;;5.25;5.25;;;;;22.40;30.72;100399.75;5077617;28;45395;-75
2023/04/22 03:50:14;;;;;;;;;6.00;6.00;;;;;22.45;30.78;100395.72;5077564;28;45397;-75
2023/04/22 03:52:40;;;;;;;;;4.25;4.25;;;;;22.38;30.86;100380.59;5077303;28;47107;-76
2023/04/22 03:55:05;;;;;;;;;5.50;5.50;;;;;22.45;31.20;100391.25;5076969;28;45393;-75
2023/04/22 03:57:30;;;;;;;;;5.50;5.50;;;;;22.46;30.94;100395.50;5077471;28;45456;-75
2023/04/22 03:59:56;;;;;;;;;6.50;5.00;;;;;22.36;31.24;100373.84;5077432;28;45422;-75
2023/04/22 04:02:21;;;;;;;;;4.75;4.75;;;;;22.45;30.96;100383.28;5077221;28;46248;-75
2023/04/22 04:04:46;;;;;;;;;5.00;5.00;;;;;22.36;30.70;100377.31;5077144;28;45360;-75
2023/04/22 04:07:12;;;;;;;;;9.25;6.00;;;;;22.31;30.72;100363.81;5077229;28;45381;-75
2023/04/22 04:09:38;;;;;;;;;10.00;7.00;;;;;22.45;31.04;100382.47;5077025;28;45319;-75
2023/04/22 04:12:03;;;;;;;;;5.00;5.00;;;;;22.45;30.63;100374.50;5077203;28;46299;-75
2023/04/22 04:14:28;;;;;;;;;5.50;5.50;;;;;22.45;31.16;100371.88;5077092;28;45502;-75
2023/04/22 04:16:54;;;;;;;;;6.50;5.50;;;;;22.45;31.13;100366.56;5076972;28;45269;-75
2023/04/22 04:19:20;;;;;;;;;5.50;5.00;;;;;22.45;30.70;100355.97;5077060;28;45275;-75
2023/04/22 04:21:45;;;;;;;;;5.25;5.25;;;;;22.33;31.02;100335.28;5075972;28;47039;-75
2023/04/22 04:24:11;;;;;;;;;4.00;4.00;;;;;22.44;30.65;100346.34;5076444;28;45242;-75
2023/04/22 04:26:36;;;;;;;;;5.00;5.00;;;;;22.44;30.61;100349.00;5076974;28;45784;-74
2023/04/22 04:29:02;;;;;;;;;5.25;4.50;;;;;22.43;31.27;100342.88;5076834;28;45356;-75
2023/04/22 04:31:27;;;;;;;;;6.00;6.00;;;;;22.44;31.25;100333.09;5076480;28;46027;-75
2023/04/22 04:33:56;;;;;;;;;7.00;5.75;;;;;22.28;30.98;100293.47;5076905;28;45344;-75
2023/04/22 04:36:24;;;;;;;;;5.50;5.50;;;;;22.42;30.76;100309.47;5076788;28;45409;-75
2023/04/22 04:38:50;;;;;;;;;5.00;5.00;;;;;22.43;31.10;100310.28;5076104;28;45307;-75
2023/04/22 04:41:15;;;;;;;;;7.25;5.25;;;;;22.38;30.77;100308.19;5076447;28;47225;-75
2023/04/22 04:43:41;;;;;;;;;5.25;4.00;;;;;22.42;30.77;100306.81;5076566;28;45968;-75
2023/04/22 04:46:07;;;;;;;;;8.50;6.00;;;;;22.14;30.57;100268.75;5076603;28;45293;-74
2023/04/22 04:48:34;;;;;;;;;4.25;4.25;;;;;22.40;31.18;100317.59;5076569;28;45348;-75
2023/04/22 04:51:00;;;;;;;;;5.25;5.25;;;;;22.39;31.41;100328.41;5076425;28;47234;-75
2023/04/22 04:53:25;;;;;;;;;7.00;4.75;;;;;22.37;30.51;100315.34;5076058;28;45436;-75
2023/04/22 04:55:51;;;;;;;;;5.50;5.50;;;;;22.35;30.91;100311.25;5076583;28;45344;-75
2023/04/22 04:58:16;;;;;;;;;5.00;5.00;;;;;22.30;31.25;100306.56;5076307;28;45479;-76
2023/04/22 05:00:41;;;;;;;;;6.50;5.25;;;;;22.34;30.61;100306.97;5076209;28;50596;-75
2023/04/22 05:03:07;;;;;;;;;6.50;6.00;;;;;22.42;30.71;100313.94;5076313;28;45369;-75
2023/04/22 05:05:32;;;;;;;;;5.50;5.50;;;;;22.38;30.78;100314.31;5076402;28;45285;-75
2023/04/22 05:07:58;;;;;;;;;7.75;6.75;;;;;22.39;31.35;100323.09;5076130;28;45440;-75
2023/04/22 05:10:24;;;;;;;;;8.75;7.25;;;;;22.42;31.22;100322.72;5076174;28;46241;-76
2023/04/22 05:12:50;;;;;;;;;5.75;5.75;;;;;22.43;31.16;100324.31;5076161;28;45300;-75
2023/04/22 05:15:15;;;;;;;;;5.25;5.00;;;;;22.43;31.18;100345.53;5076205;28;45338;-73
2023/04/22 05:17:40;;;;;;;;;5.00;5.00;;;;;22.44;31.17;100349.00;5076029;28;45534;-75
2023/04/22 05:20:06;;;;;;;;;6.25;5.25;;;;;22.44;30.93;100349.00;5076136;28;46054;-75
2023/04/22 05:22:33;;;;;;;;;6.00;6.00;;;;;22.35;31.01;100332.47;5075950;28;45318;-74
2023/04/22 05:24:58;;;;;;;;;9.00;6.50;;;;;22.35;30.83;100325.31;5076179;27;45370;-75
2023/04/22 05:27:23;;;;;;;;;6.00;5.00;;;;;22.30;31.17;100325.09;5075671;28;45305;-75
2023/04/22 05:29:49;;;;;;;;;6.00;6.00;;;;;22.45;30.79;100355.97;5075831;28;48244;-75
2023/04/22 05:32:15;;;;;;;;;6.75;4.75;;;;;22.40;31.18;100357.34;5075850;28;45442;-75
2023/04/22 05:34:40;;;;;;;;;4.25;4.25;;;;;22.40;30.87;100352.03;5075956;28;45383;-75
2023/04/22 05:37:07;;;;;;;;;8.00;6.50;;;;;22.45;31.20;100364.75;5075154;28;45643;-75
2023/04/22 05:39:32;;;;;;;;;6.00;5.50;;;;;22.35;30.76;100351.00;5075696;28;45607;-75
2023/04/22 05:41:57;;;;;;;;;6.00;5.00;;;;;22.33;31.38;100356.50;5075748;28;45294;-75
2023/04/22 05:44:23;;;;;;;;;5.25;4.25;;;;;22.46;31.37;100378.78;5075908;28;45793;-75
2023/04/22 05:46:48;;;;;;;;;6.00;5.25;;;;;22.46;30.81;100376.13;5075929;28;45413;-75
2023/04/22 05:49:13;;;;;;;;;5.00;5.00;;;;;22.45;31.00;100375.34;5075583;28;46081;-75
2023/04/22 05:51:39;;;;;;;;;5.00;5.00;;;;;22.39;31.00;100376.09;5075238;28;45403;-76
2023/04/22 05:54:04;;;;;;;;;7.00;6.25;;;;;22.46;31.25;100392.88;5075935;28;45326;-75
2023/04/22 05:56:30;;;;;;;;;6.75;6.25;;;;;22.38;30.68;100374.47;5075629;28;45340;-75
2023/04/22 05:58:55;;;;;;;;;6.00;6.00;;;;;22.47;31.26;100380.44;5075545;28;46142;-75
2023/04/22 06:01:20;;;;;;;;;5.00;5.00;;;;;22.47;30.95;100377.78;5075599;28;45423;-75
2023/04/22 06:03:46;;;;;;;;;6.25;6.00;;;;;22.42;30.90;100369.59;5075525;28;45449;-75
2023/04/22 06:06:11;;;;;;;;;7.25;7.25;;;;;22.45;31.24;100379.81;5075363;28;45315;-75
2023/04/22 06:08:36;;;;;;;;;4.50;4.50;;;;;22.17;30.86;100342.53;5057149;28;46111;-75
2023/04/22 06:11:02;;;;;;;;;6.75;6.75;;;;;22.42;30.94;100388.97;5075410;28;45267;-75
2023/04/22 06:13:27;;;;;;;;;5.50;5.50;;;;;22.29;31.43;100381.75;5075553;28;45406;-73
2023/04/22 06:15:53;;;;;;;;;6.00;6.00;;;;;22.35;30.69;100391.56;5075467;28;45325;-75
2023/04/22 06:18:18;;;;;;;;;5.75;5.75;;;;;22.42;30.88;100393.44;5075056;28;45454;-75
2023/04/22 06:20:43;;;;;;;;;6.00;6.00;;;;;22.46;31.00;100411.41;5075107;28;45402;-74
2023/04/22 06:23:09;;;;;;;;;7.50;6.50;;;;;22.44;30.78;100412.63;5075417;28;45246;-75
2023/04/22 06:25:34;;;;;;;;;5.00;5.00;;;;;22.46;30.96;100413.25;5075464;28;45460;-75
2023/04/22 06:27:59;;;;;;;;;6.25;5.00;;;;;22.27;31.36;100378.47;5074895;28;46035;-76
2023/04/22 06:30:26;;;;;;;;;5.00;4.25;;;;;22.40;31.22;100391.81;5075321;28;45290;-75
2023/04/22 06:32:53;;;;;;;;;5.75;5.75;;;;;22.34;30.77;100379.34;5075201;28;45572;-75
2023/04/22 06:35:20;;;;;;;;;3.75;3.75;;;;;22.45;31.11;100393.06;5075068;28;45307;-75
2023/04/22 06:37:45;;;;;;;;;5.00;5.00;;;;;22.45;30.83;100390.41;5074579;28;46971;-75
2023/04/22 06:40:11;;;;;;;;;7.50;7.50;;;;;22.03;31.31;100319.63;5074998;28;45349;-75
2023/04/22 06:42:36;;;;;;;;;6.50;6.00;;;;;22.42;31.44;100381.03;5075123;28;45393;-75
2023/04/22 06:45:03;;;;;;;;;6.25;5.00;;;;;22.43;30.98;100390.59;5057096;28;49112;-75
2023/04/22 06:47:29;;;;;;;;;8.75;7.50;;;;;22.39;31.28;100382.22;5077822;28;46161;-75
2023/04/22 06:49:54;;;;;;;;;5.75;5.75;;;;;22.42;31.21;100383.69;5078389;28;45420;-75
2023/04/22 06:52:20;;;;;;;;;6.00;6.00;;;;;22.26;31.33;100364.41;5078431;28;45285;-75
2023/04/22 06:54:46;;;;;;;;;6.00;6.00;;;;;22.36;31.13;100376.47;5078418;28;45330;-75
2023/04/22 06:57:11;;;;;;;;;5.75;5.75;;;;;22.42;31.48;100380.19;5078123;28;46203;-75
2023/04/22 06:59:36;;;;;;;;;10.00;5.50;;;;;22.36;31.14;100374.66;5060117;28;45702;-75
2023/04/22 07:02:02;;;;;;;;;5.25;5.25;;;;;22.40;31.34;100378.56;5078182;28;45424;-75
2023/04/22 07:04:28;;;;;;;;;5.25;5.25;;;;;22.31;31.54;100358.53;5078315;28;45391;-75
2023/04/22 07:06:54;;;;;;;;;6.25;5.00;;;;;22.25;30.91;100348.72;5077970;28;47490;-75
2023/04/22 07:09:19;;;;;;;;;6.25;6.00;;;;;22.41;31.41;100371.41;5078015;28;45373;-76
2023/04/22 07:11:45;;;;;;;;;7.25;6.00;;;;;22.38;31.52;100362.03;5078229;28;45595;-75
2023/04/22 07:14:10;;;;;;;;;6.00;6.00;;;;;22.42;31.29;100373.06;5078192;28;45291;-74
2023/04/22 07:16:37;;;;;;;;;6.50;6.00;;;;;22.43;31.29;100373.91;5077491;28;45891;-75
2023/04/22 07:19:04;;;;;;;;;5.00;4.25;;;;;22.43;30.90;100366.75;5077925;28;45380;-76
2023/04/22 07:21:31;;;;;;;;;4.00;3.75;;;;;22.43;31.42;100365.94;5077924;28;45482;-75
2023/04/22 07:23:57;;;;;;;;;5.00;5.00;;;;;22.43;31.18;100368.59;5077329;28;45334;-75
2023/04/22 07:26:22;;;;;;;;;8.00;6.00;;;;;22.40;31.55;100370.59;5077440;28;46733;-75
2023/04/22 07:28:48;;;;;;;;;6.00;6.00;;;;;22.44;31.50;100364.91;5077823;28;45351;-75
2023/04/22 07:31:13;;;;;;;;;6.50;6.50;;;;;22.44;30.91;100364.91;5077580;28;45441;-75
2023/04/22 07:33:39;;;;;;;;;4.00;4.00;;;;;22.44;31.31;100365.75;5077823;28;45299;-75
2023/04/22 07:36:05;;;;;;;;;6.00;6.00;;;;;22.44;31.13;100359.63;5077577;28;46169;-75
2023/04/22 07:38:30;;;;;;;;;5.50;5.50;;;;;22.34;31.35;100344.06;5077255;27;45320;-75
2023/04/22 07:40:56;;;;;;;;;7.25;5.50;;;;;22.26;31.58;100324.66;5077616;28;45383;-75
2023/04/22 07:43:21;;;;;;;;;5.75;5.75;;;;;22.34;31.10;100341.41;5077791;28;45241;-75
2023/04/22 07:45:46;;;;;;;;;5.75;5.75;;;;;22.40;31.70;100351.25;5077032;28;46069;-75
2023/04/22 07:48:12;;;;;;;;;6.00;5.00;;;;;22.41;31.27;100358.16;5077418;28;45428;-75
2023/04/22 07:50:37;;;;;;;;;4.75;4.75;;;;;22.35;31.20;100356.31;5059350;28;45334;-76
2023/04/22 07:53:02;;;;;;;;;7.00;6.25;;;;;22.45;31.08;100377.16;5077553;28;45319;-75
2023/04/22 07:55:27;;;;;;;;;7.00;6.00;;;;;22.37;31.11;100360.41;5077317;28;45466;-75
2023/04/22 07:57:53;;;;;;;;;4.25;4.25;;;;;22.44;31.64;100368.38;5076165;28;45504;-75
2023/04/22 08:00:18;;;;;;;;;6.75;5.00;;;;;22.33;31.41;100351.19;5059021;28;45394;-75
2023/04/22 08:02:45;;;;;;;;;5.50;5.50;;;;;22.43;31.02;100361.44;5077417;28;45544;-75
2023/04/22 08:05:10;;;;;;;;;6.50;6.50;;;;;22.44;31.47;100356.97;5077176;28;45544;-75
2023/04/22 08:07:35;;;;;;;;;5.00;5.00;;;;;22.44;31.19;100354.31;5077020;28;45421;-75
2023/04/22 08:10:01;;;;;;;;;5.75;5.75;;;;;22.36;31.05;100336.72;5077315;28;45438;-75
2023/04/22 08:12:26;;;;;;;;;6.25;6.25;;;;;22.14;31.60;100305.84;5077364;28;45443;-76
2023/04/22 08:14:52;;;;;;;;;5.75;5.00;;;;;22.28;31.17;100332.41;5076757;28;46021;-76
2023/04/22 08:17:20;;;;;;;;;6.50;6.50;;;;;22.43;31.59;100356.13;5076840;28;45412;-75
2023/04/22 08:19:47;;;;;;;;;5.00;5.00;;;;;22.37;31.75;100344.50;5077086;28;45360;-76
2023/04/22 08:22:12;;;;;;;;;5.25;5.25;;;;;22.43;31.75;100344.75;5076914;28;45294;-75
2023/04/22 08:24:38;;;;;;;;;5.00;4.00;;;;;22.41;31.50;100350.22;5076760;28;46117;-75
2023/04/22 08:27:03;;;;;;;;;6.75;6.75;;;;;22.36;31.37;100344.69;5076380;28;51732;-75
2023/04/22 08:29:29;;;;;;;;;4.75;4.75;;;;;22.28;31.19;100325.28;5076637;28;45278;-75
2023/04/22 08:31:54;;;;;;;;;6.00;6.00;;;;;22.42;31.26;100348.41;5076909;28;45347;-75
2023/04/22 08:34:20;;;;;;;;;7.75;7.75;;;;;22.36;31.50;100342.84;5076617;28;46338;-75
2023/04/22 08:36:45;;;;;;;;;6.00;6.00;;;;;22.40;31.61;100353.91;5076505;28;45620;-75
2023/04/22 08:39:11;;;;;;;;;5.25;5.25;;;;;22.40;31.15;100352.03;5076842;28;45356;-75
2023/04/22 08:41:37;;;;;;;;;6.75;6.75;;;;;22.40;31.50;100356.56;5076654;28;45484;-73
2023/04/22 08:44:04;;;;;;;;;6.00;5.00;;;;;22.41;31.37;100350.22;5076242;28;45350;-76
2023/04/22 08:46:30;;;;;;;;;6.00;6.00;;;;;22.33;31.54;100334.50;5076369;28;45452;-75
2023/04/22 08:49:02;;;;;;;;;5.50;5.00;;;;;22.38;31.77;100342.66;5076586;28;45417;-76
2023/04/22 08:51:30;;;;;;;;;5.00;2.25;;;;;22.33;31.66;100343.25;5076620;28;45402;-76
2023/04/22 08:53:56;;;;;;;;;7.75;6.25;;;;;22.43;31.82;100352.69;5076223;28;46325;-76
2023/04/22 08:56:21;;;;;;;;;7.75;6.00;;;;;22.43;31.85;100348.19;5076313;28;45451;-75
2023/04/22 08:58:47;;;;;;;;;5.25;5.25;;;;;22.44;31.27;100346.34;5076214;28;45494;-75
2023/04/22 09:01:13;;;;;;;;;6.00;6.00;;;;;22.43;31.21;100342.88;5076394;28;45915;-75
2023/04/22 09:03:40;;;;;;;;;7.25;7.25;;;;;22.44;31.88;100346.34;5076371;28;46206;-75
2023/04/22 09:06:06;;;;;;;;;7.25;6.00;;;;;22.41;31.83;100336.97;5076033;28;45257;-75
2023/04/22 09:08:32;;;;;;;;;7.25;4.50;;;;;22.44;31.28;100344.53;5075969;28;45445;-75
2023/04/22 09:11:01;;;;;;;;;7.00;5.75;;;;;22.39;31.40;100326.56;5076189;28;45305;-75
2023/04/22 09:13:27;;;;;;;;;5.50;4.50;;;;;22.43;31.86;100334.13;5075714;28;46162;-75
2023/04/22 09:15:52;;;;;;;;;5.50;5.00;;;;;22.34;31.42;100326.34;5076050;28;45360;-75
2023/04/22 09:18:18;;;;;;;;;6.00;5.25;;;;;22.46;31.40;100344.31;5076097;28;45344;-75
2023/04/22 09:20:46;;;;;;;;;7.00;6.25;;;;;22.39;31.33;100334.53;5058249;28;45377;-75
2023/04/22 09:23:12;;;;;;;;;7.25;6.00;;;;;22.47;31.34;100340.66;5075873;28;46214;-75
2023/04/22 09:25:38;;;;;;;;;9.50;5.50;;;;;22.44;31.20;100338.41;5075841;28;45476;-76
2023/04/22 09:28:03;;;;;;;;;6.75;6.00;;;;;22.43;31.55;100339.44;5075565;28;45420;-75
2023/04/22 09:30:31;;;;;;;;;4.75;4.75;;;;;22.15;31.31;100294.22;5076064;28;45478;-75
2023/04/22 09:32:58;;;;;;;;;8.00;5.00;;;;;22.34;31.42;100317.56;5075609;28;46736;-75
2023/04/22 09:35:29;;;;;;;;;6.75;6.75;;;;;22.47;31.49;100335.38;5075819;28;45347;-75
2023/04/22 09:37:55;;;;;;;;;4.50;4.50;;;;;22.47;31.62;100335.38;5075588;28;45291;-75
2023/04/22 09:40:21;;;;;;;;;5.25;5.00;;;;;22.48;31.54;100337.03;5075911;28;45490;-75
2023/04/22 09:42:51;;;;;;;;;7.50;5.00;;;;;22.20;31.57;100298.13;5075297;28;45349;-75
2023/04/22 09:45:33;;;;;;;;;5.00;5.00;;;;;22.42;31.74;100341.25;5075704;28;45417;-75
2023/04/22 09:48:22;;;;;;;;;7.25;5.00;;;;;22.42;31.92;100346.56;5075694;28;45262;-75
2023/04/22 09:50:49;;;;;;;;;6.25;6.00;;;;;22.49;31.81;100352.72;5075735;28;45415;-75
2023/04/22 09:53:18;;;;;;;;;4.75;4.75;;;;;22.48;31.88;100345.78;5075423;28;46468;-75
2023/04/22 09:55:47;;;;;;;;;4.50;4.50;;;;;22.50;31.97;100358.84;5075600;28;45376;-75
2023/04/22 09:58:17;;;;;;;;;4.75;4.00;;;;;22.42;32.07;100348.41;5075204;28;45390;-75
2023/04/22 10:00:52;;;;;;;;;6.25;5.50;;;;;22.51;31.88;100363.13;5057572;28;45475;-75
2023/04/22 10:03:18;;;;;;;;;5.25;4.00;;;;;22.52;32.10;100367.41;5075408;28;46120;-75
2023/04/22 10:05:44;;;;;;;;;6.25;5.50;;;;;22.45;31.94;100355.97;5075375;28;45336;-75
2023/04/22 10:08:12;;;;;;;;;4.25;4.25;;;;;22.11;31.56;100305.41;5075572;28;45389;-75
2023/04/22 10:10:38;;;;;;;;;4.00;4.00;;;;;22.39;31.53;100355.72;5075251;28;45288;-76
2023/04/22 10:13:04;;;;;;;;;8.50;6.00;;;;;22.44;32.00;100368.38;5075184;28;46079;-75
2023/04/22 10:15:37;;;;;;;;;4.50;4.50;;;;;22.56;31.59;100381.13;5075458;28;45448;-75
2023/04/22 10:18:05;;;;;;;;;7.50;5.50;;;;;22.57;31.98;100393.34;5075520;28;45353;-75
2023/04/22 10:20:35;;;;;;;;;5.50;4.50;;;;;22.46;31.41;100379.59;5076506;28;45379;-75
2023/04/22 10:23:03;;;;;;;;;6.00;6.00;;;;;22.59;31.54;100394.78;5078645;28;46934;-75
2023/04/22 10:25:29;;;;;;;;;5.00;5.00;;;;;22.46;31.78;100373.47;5078294;28;45392;-74
2023/04/22 10:28:02;;;;;;;;;6.25;4.25;;;;;22.61;32.01;100394.59;5078643;28;45301;-75
2023/04/22 10:30:30;;;;;;;;;4.75;4.75;;;;;22.59;31.36;100393.94;5078784;28;45348;-76
2023/04/22 10:32:55;;;;;;;;;5.75;5.75;;;;;22.34;31.35;100355.50;5078338;28;46118;-75
2023/04/22 10:35:30;;;;;;;;;7.75;6.00;;;;;22.59;31.48;100392.13;5078640;28;45462;-75
2023/04/22 10:37:56;;;;;;;;;4.50;4.50;;;;;22.57;31.73;100380.09;5060158;28;45381;-75
2023/04/22 10:40:21;;;;;;;;;4.00;4.00;;;;;22.65;31.80;100395.00;5078240;28;45281;-75
2023/04/22 10:42:52;;;;;;;;;5.00;5.00;;;;;22.61;31.57;100387.44;5078359;28;47035;-75
2023/04/22 10:45:22;;;;;;;;;5.00;5.00;;;;;22.58;31.57;100395.81;5078666;28;45379;-76
2023/04/22 10:47:48;;;;;;;;;4.75;4.75;;;;;22.67;31.78;100395.63;5078572;28;45425;-75
2023/04/22 10:50:15;;;;;;;;;6.00;4.00;;;;;22.67;31.51;100387.69;5077153;27;45414;-75
2023/04/22 10:52:46;;;;;;;;;4.50;4.50;;;;;22.67;31.45;100395.63;5078387;28;46322;-75
2023/04/22 10:55:12;;;;;;;;;4.75;4.75;;;;;22.64;31.38;100391.53;5077937;28;45526;-75
2023/04/22 10:57:42;;;;;;;;;3.75;3.75;;;;;22.68;31.67;100397.28;5078077;28;45332;-76
2023/04/22 11:00:21;;;;;;;;;5.00;5.00;;;;;22.65;31.83;100393.19;5078515;28;45352;-75
2023/04/22 11:02:51;;;;;;;;;7.25;5.00;;;;;22.61;31.75;100384.78;5078050;28;46103;-76
2023/04/22 11:05:18;;;;;;;;;6.00;6.00;;;;;22.68;31.75;100403.41;5078069;28;45422;-75
2023/04/22 11:07:43;;;;;;;;;5.25;5.25;;;;;22.60;31.51;100380.53;5078221;28;45513;-76
2023/04/22 11:10:14;;;;;;;;;4.50;4.50;;;;;22.66;31.94;100396.66;5077957;28;45483;-75
2023/04/22 11:12:41;;;;;;;;;4.50;4.50;;;;;22.68;31.96;100390.16;5078203;28;45457;-75
2023/04/22 11:15:16;;;;;;;;;4.00;4.00;;;;;22.67;31.45;100390.31;5078020;28;45352;-75
2023/04/22 11:17:43;;;;;;;;;5.25;5.00;;;;;22.59;31.80;100370.09;5077970;28;45399;-74
2023/04/22 11:20:11;;;;;;;;;4.25;3.75;;;;;22.31;31.93;100328.53;5078036;28;45434;-75